METAR Data
IDs: Format: Raw Decoded Include TAF

Data at: 2052 UTC 17 Jun 2024

Region: TOP

KATL 171952Z 15009G19KT 10SM FEW060 BKN200 BKN250 32/18 A3012 RMK AO2 SLP188 TCU DSNT NE E SE T03220183 $


KBOS 171954Z 19014KT 10SM FEW050 BKN180 OVC250 26/16 A3010 RMK AO2 SLP194 T02560161


KBWI 171954Z 13009KT 10SM SCT042 SCT050 31/21 A3012 RMK AO2 SLP197 T03060211 $


KCLE 172042Z 20005KT 10SM BKN200 27/21 A3003 RMK AO2 LTG DSNT SW AND W TSE36 T02670206


KCLT 171952Z 15006KT 10SM SCT038 SCT250 31/21 A3017 RMK AO2 SLP219 T03060211


KCVG 171952Z 22011G16KT 10SM FEW049 FEW080 SCT300 34/22 A3006 RMK AO2 SLP165 MDT CU N-NE T03390217


KDCA 171952Z 17010KT 10SM SCT070 SCT250 32/22 A3012 RMK AO2 SLP199 T03170217


KDEN 171953Z 11015G26KT 10SM FEW110 FEW140 31/12 A2959 RMK AO2 PK WND 12026/1947 SLP930 T03060122


KDFW 171953Z 17016G30KT 10SM SCT050 34/22 A2978 RMK AO2 PK WND 14030/1946 SLP073 T03390217


KDTW 171953Z 26006G15KT 10SM FEW055 SCT220 34/22 A2998 RMK AO2 SLP148 T03390217


KEWR 171951Z 23012G17KT 10SM SCT050 SCT250 32/17 A3011 RMK AO2 SLP197 T03220172


KFLL 171953Z 09019G25KT 10SM SCT027 BKN170 BKN250 32/22 A2996 RMK AO2 SLP142 T03170222


KIAD 171952Z 17007KT 10SM BKN045 BKN075 BKN250 32/20 A3012 RMK AO2 SLP195 T03220200


KIAH 171953Z 13018G26KT 10SM SCT035 SCT055 BKN250 33/24 A2983 RMK AO2 PK WND 15030/1938 SLP100 T03280239


KJFK 171951Z 18020G29KT 10SM FEW055 SCT250 25/18 A3016 RMK AO2 PK WND 18029/1938 SLP212 T02500183


KLAS 171956Z 20013G24KT 10SM FEW250 37/00 A2953 RMK AO2 SLP968 T03670000 $


KLAX 171953Z 23011G19KT 9SM FEW025 SCT032 22/14 A2976 RMK AO2 SLP076 T02170144


KLGA 171951Z 16014G23KT 10SM FEW055 FEW080 SCT250 28/16 A3013 RMK AO2 SLP203 T02830161


KMCO 171953Z 09016KT 10SM FEW038 FEW075 BKN300 32/22 A3001 RMK AO2 SLP161 T03170217


KMDW 172009Z 19014G23KT 10SM SCT070 SCT250 34/19 A2991 RMK AO2 PK WND 18027/1959 WSHFT 1949 T03440194


KMEM 172047Z 28008G24KT 230V300 10SM -DZ FEW028 SCT050 BKN070 24/22 A2997 RMK AO2 PK WND 30028/2037 WSHFT 2032 LTG DSNT SW-N RAB30E44DZB44 OCNL LTGIC DSNT SW-NW CB DSNT SW-NW MOV NE P0000 T02440222


KMIA 171953Z 08015G24KT 10SM FEW028 SCT036 BKN250 31/22 A2996 RMK AO2 PK WND 07026/1859 SLP144 T03060217 $


KMSP 172040Z 06005KT 10SM -RA OVC009 17/15 A2984 RMK AO2 RAB1957E18B34 P0001 T01670150


KORD 171951Z 21014G26KT 10SM FEW070 SCT250 36/17 A2990 RMK AO2 PK WND 22026/1917 SLP116 T03560172


KPDX 172000Z 02004KT 10SM SCT018 BKN026 BKN055 15/11 A3011 RMK AO2 T01500106


KPHL 171954Z 19011KT 10SM SCT045 SCT080 31/19 A3014 RMK AO2 SLP204 T03060194


KPHX 171951Z 28012G16KT 10SM CLR 40/01 A2956 RMK AO2 SLP985 T04000011


KPIT 172042Z 20007KT 10SM TS FEW030 SCT050CB SCT250 34/20 A3008 RMK AO2 TSB41 OCNL LTGIC N TS N MOV E T03390200


KSAN 172008Z 19008G18KT 170V260 10SM FEW016 SCT023 19/13 A2979 RMK AO2 T01940133 $


KSEA 171953Z 21005KT 10SM SCT023 BKN045 OVC070 15/08 A3005 RMK AO2 SLP183 T01500078


KSFO 171956Z 28011KT 10SM SCT200 23/07 A2990 RMK AO2 SLP125 T02280067


KSLC 171954Z 29009G27KT 250V320 10SM FEW085 FEW140 23/00 A2966 RMK AO2 PK WND 33027/1947 SLP992 ACSL DSNT NE T02330000


KSTL 171951Z 16013G23KT 10SM SCT047 SCT250 34/21 A2994 RMK AO2 SLP123 T03440211


KTPA 171953Z 07010G25KT 040V110 10SM SCT050 SCT250 33/19 A2997 RMK AO2 SLP146 T03330189